Time;durP1;ratioP1;P1;durP2;ratioP2;P2;SDS_P1;SDS_P2;PMS_P1;PMS_P2;Temp;Humidity;BMP_temperature;BMP_pressure;BME280_temperature;BME280_humidity;BME280_pressure;Samples;Min_cycle;Max_cycle;Signal;HPM_P1;HPM_P2
2022/02/28 00:00:42;;;;;;;;;;;0.40;85.80;;;;;;5033776;28;19917;-70
2022/02/28 00:03:08;;;;;;;;;;;0.40;85.60;;;;;;5032286;28;20387;-70
2022/02/28 00:05:34;;;;;;;;;;;0.50;85.30;;;;;;5033383;28;19909;-70
2022/02/28 00:07:59;;;;;;;;;;;0.50;85.50;;;;;;5033578;28;19928;-70
2022/02/28 00:10:25;;;;;;;;;;;0.70;84.90;;;;;;5033562;28;19948;-70
2022/02/28 00:12:51;;;;;;;;;;;1.00;84.30;;;;;;5033413;28;19913;-69
2022/02/28 00:15:17;;;;;;;;;;;1.00;83.10;;;;;;5032058;28;19909;-70
2022/02/28 00:17:43;;;;;;;;;;;0.90;83.00;;;;;;5032094;28;20261;-70
2022/02/28 00:20:09;;;;;;;;;;;0.80;84.20;;;;;;5033234;28;19909;-70
2022/02/28 00:22:35;;;;;;;;;;;0.70;85.20;;;;;;5033419;28;20315;-69
2022/02/28 00:25:02;;;;;;;;;;;0.60;85.30;;;;;;5032018;28;19920;-70
2022/02/28 00:27:28;;;;;;;;;;;0.60;85.00;;;;;;5031944;28;19916;-69
2022/02/28 00:29:54;;;;;;;;;;;0.50;83.90;;;;;;5033149;28;19988;-70
2022/02/28 00:32:20;;;;;;;;;;;0.30;84.50;;;;;;5033028;28;19917;-70
2022/02/28 00:34:46;;;;;;;;;;;0.10;84.40;;;;;;5033026;28;19909;-70
2022/02/28 00:37:11;;;;;;;;;;;0.00;86.40;;;;;;5033050;28;19915;-70
2022/02/28 00:39:37;;;;;;;;;;;-0.20;86.30;;;;;;5033306;28;20032;-70
2022/02/28 00:42:02;;;;;;;;;;;-0.20;87.30;;;;;;5032898;28;20412;-70
2022/02/28 00:44:28;;;;;;;;;;;-0.10;87.70;;;;;;5032898;28;19909;-70
2022/02/28 00:46:54;;;;;;;;;;;-0.10;87.20;;;;;;5032247;28;19931;-70
2022/02/28 00:49:19;;;;;;;;;;;-0.20;87.30;;;;;;5031501;28;19913;-70
2022/02/28 00:51:45;;;;;;;;;;;-0.10;88.50;;;;;;5032808;28;20004;-70
2022/02/28 00:54:11;;;;;;;;;;;0.10;88.40;;;;;;5032753;28;20357;-70
2022/02/28 00:56:36;;;;;;;;;;;0.10;87.40;;;;;;5032816;28;19909;-70
2022/02/28 00:59:02;;;;;;;;;;;0.20;87.20;;;;;;5032672;28;19909;-70
2022/02/28 01:01:27;;;;;;;;;;;0.20;87.20;;;;;;5032716;28;20253;-70
2022/02/28 01:03:53;;;;;;;;;;;0.20;87.10;;;;;;5031269;28;19909;-70
2022/02/28 01:06:19;;;;;;;;;;;0.30;86.80;;;;;;5032571;28;20333;-70
2022/02/28 01:08:44;;;;;;;;;;;0.40;86.10;;;;;;5032657;28;19909;-70
2022/02/28 01:11:10;;;;;;;;;;;0.40;85.90;;;;;;5032630;28;20364;-70
2022/02/28 01:13:36;;;;;;;;;;;0.40;86.00;;;;;;5032480;28;19909;-69
2022/02/28 01:16:02;;;;;;;;;;;0.50;86.10;;;;;;5032483;28;19909;-70
2022/02/28 01:18:27;;;;;;;;;;;0.50;85.70;;;;;;5032581;28;19913;-70
2022/02/28 01:20:53;;;;;;;;;;;0.40;84.60;;;;;;5032560;28;20360;-70
2022/02/28 01:23:19;;;;;;;;;;;0.20;85.70;;;;;;5032402;28;19909;-70
2022/02/28 01:25:45;;;;;;;;;;;0.00;86.20;;;;;;5047847;28;20319;-70
2022/02/28 01:28:10;;;;;;;;;;;-0.10;86.70;;;;;;5032448;28;19909;-69
2022/02/28 01:30:36;;;;;;;;;;;0.00;87.20;;;;;;5032387;28;19909;-70
2022/02/28 01:33:03;;;;;;;;;;;-0.10;86.60;;;;;;5032279;28;20312;-70
2022/02/28 01:35:28;;;;;;;;;;;0.10;87.20;;;;;;5032332;28;19963;-70
2022/02/28 01:37:54;;;;;;;;;;;0.10;86.80;;;;;;5031380;28;19913;-70
2022/02/28 01:40:20;;;;;;;;;;;0.10;87.20;;;;;;5033090;28;19913;-71
2022/02/28 01:42:46;;;;;;;;;;;-0.10;86.90;;;;;;5032305;28;19918;-71
2022/02/28 01:45:12;;;;;;;;;;;-0.10;88.20;;;;;;5032098;28;20248;-71
2022/02/28 01:47:38;;;;;;;;;;;-0.20;87.90;;;;;;5032118;28;20307;-71
2022/02/28 01:50:04;;;;;;;;;;;-0.20;87.40;;;;;;5032152;28;19992;-71
2022/02/28 01:52:29;;;;;;;;;;;-0.40;87.30;;;;;;5032080;28;19917;-71
2022/02/28 01:54:55;;;;;;;;;;;-0.40;88.60;;;;;;5030871;28;19916;-71
2022/02/28 01:57:21;;;;;;;;;;;-0.50;89.10;;;;;;5032976;28;19963;-71
2022/02/28 01:59:47;;;;;;;;;;;-0.60;89.10;;;;;;5034676;28;19909;-71
2022/02/28 02:02:13;;;;;;;;;;;-0.50;89.30;;;;;;5035932;28;19909;-71
2022/02/28 02:04:39;;;;;;;;;;;-0.60;89.20;;;;;;5035439;28;19917;-70
2022/02/28 02:07:04;;;;;;;;;;;-0.60;89.30;;;;;;5035722;28;19909;-70
2022/02/28 02:09:34;;;;;;;;;;;-0.60;89.40;;;;;;5035773;28;20407;-70
2022/02/28 02:12:00;;;;;;;;;;;-0.50;90.00;;;;;;5035698;28;19971;-70
2022/02/28 02:14:26;;;;;;;;;;;-0.40;89.30;;;;;;5017837;28;19909;-70
2022/02/28 02:16:52;;;;;;;;;;;-0.30;89.60;;;;;;5035508;28;19909;-71
2022/02/28 02:19:17;;;;;;;;;;;-0.20;89.00;;;;;;5035567;28;19955;-70
2022/02/28 02:21:43;;;;;;;;;;;0.00;88.50;;;;;;5035505;28;19916;-70
2022/02/28 02:24:08;;;;;;;;;;;0.00;87.70;;;;;;5035507;28;19909;-71
2022/02/28 02:26:34;;;;;;;;;;;0.00;87.50;;;;;;5035272;28;20292;-70
2022/02/28 02:29:00;;;;;;;;;;;0.00;87.00;;;;;;5035537;28;19921;-71
2022/02/28 02:31:25;;;;;;;;;;;-0.10;87.60;;;;;;5035380;28;19921;-70
2022/02/28 02:33:52;;;;;;;;;;;0.00;87.80;;;;;;5034161;28;20007;-70
2022/02/28 02:36:18;;;;;;;;;;;0.10;86.80;;;;;;5034047;28;20348;-71
2022/02/28 02:38:44;;;;;;;;;;;0.20;86.30;;;;;;5035727;28;19956;-70
2022/02/28 02:41:10;;;;;;;;;;;0.20;86.20;;;;;;5034994;28;20261;-70
2022/02/28 02:43:35;;;;;;;;;;;0.20;87.40;;;;;;5035188;28;19935;-70
2022/02/28 02:46:02;;;;;;;;;;;0.20;86.40;;;;;;5035032;28;20004;-71
2022/02/28 02:48:27;;;;;;;;;;;0.20;86.40;;;;;;5033823;28;19995;-70
2022/02/28 02:50:53;;;;;;;;;;;0.20;85.70;;;;;;5035040;28;20327;-70
2022/02/28 02:53:19;;;;;;;;;;;0.00;85.80;;;;;;5034897;28;20323;-70
2022/02/28 02:55:45;;;;;;;;;;;0.00;86.50;;;;;;5050364;28;19909;-70
2022/02/28 02:58:13;;;;;;;;;;;-0.10;87.40;;;;;;5034919;28;20331;-70
2022/02/28 03:00:43;;;;;;;;;;;-0.10;87.80;;;;;;5034879;28;20028;-71
2022/02/28 03:03:10;;;;;;;;;;;-0.10;86.90;;;;;;5034639;28;19971;-71
2022/02/28 03:05:36;;;;;;;;;;;0.00;88.20;;;;;;5033120;28;19909;-71
2022/02/28 03:08:02;;;;;;;;;;;-0.10;87.40;;;;;;5034758;28;20383;-71
2022/02/28 03:10:27;;;;;;;;;;;-0.40;86.70;;;;;;5033990;28;20008;-70
2022/02/28 03:12:53;;;;;;;;;;;-0.50;87.40;;;;;;5034525;28;20369;-71
2022/02/28 03:15:18;;;;;;;;;;;-0.80;88.40;;;;;;5034539;28;20291;-71
2022/02/28 03:17:44;;;;;;;;;;;-0.90;89.60;;;;;;5033102;28;19913;-70
2022/02/28 03:20:10;;;;;;;;;;;-1.10;89.10;;;;;;5033233;28;19913;-70
2022/02/28 03:22:36;;;;;;;;;;;-1.20;89.70;;;;;;5034975;28;20327;-71
2022/02/28 03:25:01;;;;;;;;;;;-1.20;90.30;;;;;;5034485;28;20424;-71
2022/02/28 03:27:27;;;;;;;;;;;-1.00;90.70;;;;;;5033064;28;19963;-71
2022/02/28 03:29:53;;;;;;;;;;;-0.90;90.20;;;;;;5033116;28;20281;-71
2022/02/28 03:32:18;;;;;;;;;;;-0.90;90.10;;;;;;5034225;28;19929;-70
2022/02/28 03:34:44;;;;;;;;;;;-0.90;90.00;;;;;;5032852;28;19916;-70
2022/02/28 03:37:09;;;;;;;;;;;-1.10;89.40;;;;;;5032876;28;20288;-70
2022/02/28 03:39:35;;;;;;;;;;;-1.20;90.20;;;;;;5034233;28;19977;-70
2022/02/28 03:42:01;;;;;;;;;;;-1.30;90.00;;;;;;5032660;28;19917;-70
2022/02/28 03:44:26;;;;;;;;;;;-1.30;90.60;;;;;;5034487;28;20131;-71
2022/02/28 03:46:52;;;;;;;;;;;-1.20;90.70;;;;;;5033899;28;20357;-71
2022/02/28 03:49:18;;;;;;;;;;;-1.10;90.80;;;;;;5034056;28;19910;-71
2022/02/28 03:51:43;;;;;;;;;;;-0.90;90.50;;;;;;5032622;28;19913;-71
2022/02/28 03:54:12;;;;;;;;;;;-1.00;90.20;;;;;;5033787;28;20344;-71
2022/02/28 03:56:39;;;;;;;;;;;-1.10;90.10;;;;;;5033681;28;19909;-71
2022/02/28 03:59:05;;;;;;;;;;;-1.30;90.40;;;;;;5033826;28;19909;-71
2022/02/28 04:01:31;;;;;;;;;;;-1.30;90.50;;;;;;5033630;28;19909;-71
2022/02/28 04:03:57;;;;;;;;;;;-1.40;90.80;;;;;;5032181;28;19913;-71
2022/02/28 04:06:22;;;;;;;;;;;-1.30;91.00;;;;;;5032239;28;20358;-71
2022/02/28 04:08:48;;;;;;;;;;;-1.20;90.90;;;;;;5032401;28;19909;-70
2022/02/28 04:11:14;;;;;;;;;;;-1.10;90.50;;;;;;5033496;28;20353;-70
2022/02/28 04:13:39;;;;;;;;;;;-1.00;90.50;;;;;;5033459;28;20007;-71
2022/02/28 04:16:05;;;;;;;;;;;-0.80;90.40;;;;;;5033349;28;19920;-71
2022/02/28 04:18:31;;;;;;;;;;;-0.90;90.20;;;;;;5033473;28;19992;-70
2022/02/28 04:20:57;;;;;;;;;;;-0.80;90.20;;;;;;5031226;28;19909;-71
2022/02/28 04:23:22;;;;;;;;;;;-0.90;90.20;;;;;;5032049;28;19949;-71
2022/02/28 04:25:48;;;;;;;;;;;-0.90;90.60;;;;;;5033672;28;20367;-71
2022/02/28 04:28:13;;;;;;;;;;;-0.80;90.50;;;;;;5033572;28;19975;-71
2022/02/28 04:30:39;;;;;;;;;;;-0.80;90.30;;;;;;5032584;28;19967;-71
2022/02/28 04:33:05;;;;;;;;;;;-0.80;90.20;;;;;;5033163;28;19913;-74
2022/02/28 04:35:31;;;;;;;;;;;-1.10;89.70;;;;;;5033266;28;19909;-73
2022/02/28 04:37:56;;;;;;;;;;;-1.00;90.40;;;;;;5015451;28;19913;-73
2022/02/28 04:40:22;;;;;;;;;;;-1.20;90.50;;;;;;5033253;28;19963;-73
2022/02/28 04:42:47;;;;;;;;;;;-1.10;90.60;;;;;;5047222;22;19971;-72
2022/02/28 04:45:13;;;;;;;;;;;-1.30;90.00;;;;;;5031327;28;19909;-73
2022/02/28 04:47:39;;;;;;;;;;;-1.50;90.40;;;;;;5031520;28;20257;-72
2022/02/28 04:50:05;;;;;;;;;;;-1.50;91.00;;;;;;5032800;28;20360;-72
2022/02/28 04:52:30;;;;;;;;;;;-1.50;90.80;;;;;;5031418;28;19921;-73
2022/02/28 04:54:56;;;;;;;;;;;-1.60;91.00;;;;;;5032799;28;20211;-73
2022/02/28 04:57:22;;;;;;;;;;;-1.50;91.20;;;;;;5031139;28;19917;-73
2022/02/28 04:59:47;;;;;;;;;;;-1.50;91.40;;;;;;5015052;28;19909;-72
2022/02/28 05:02:13;;;;;;;;;;;-1.60;91.40;;;;;;5014901;28;19909;-72
2022/02/28 05:04:38;;;;;;;;;;;-1.60;91.60;;;;;;5031251;28;19992;-72
2022/02/28 05:07:04;;;;;;;;;;;-1.60;91.40;;;;;;5031122;28;19916;-73
2022/02/28 05:09:30;;;;;;;;;;;-1.40;91.90;;;;;;5031394;28;19963;-72
2022/02/28 05:11:55;;;;;;;;;;;-1.20;92.00;;;;;;5031287;28;20288;-73
2022/02/28 05:14:21;;;;;;;;;;;-1.20;91.70;;;;;;5031088;28;19963;-73
2022/02/28 05:16:47;;;;;;;;;;;-1.20;91.70;;;;;;5031154;28;19932;-72
2022/02/28 05:19:12;;;;;;;;;;;-1.10;91.90;;;;;;5032460;28;20364;-72
2022/02/28 05:21:38;;;;;;;;;;;-1.10;91.80;;;;;;5032372;28;19941;-73
2022/02/28 05:24:04;;;;;;;;;;;-1.10;91.70;;;;;;5032345;28;20004;-72
2022/02/28 05:26:29;;;;;;;;;;;-1.20;91.50;;;;;;5032308;28;19909;-73
2022/02/28 05:28:55;;;;;;;;;;;-1.50;91.40;;;;;;5032473;28;19913;-73
2022/02/28 05:31:21;;;;;;;;;;;-1.40;91.90;;;;;;5032328;28;19916;-72
2022/02/28 05:33:46;;;;;;;;;;;-1.60;91.50;;;;;;5035728;28;20010;-72
2022/02/28 05:36:12;;;;;;;;;;;-1.60;91.70;;;;;;5035196;28;19917;-72
2022/02/28 05:38:37;;;;;;;;;;;-1.70;91.20;;;;;;5036314;28;19909;-73
2022/02/28 05:41:03;;;;;;;;;;;-1.90;91.90;;;;;;5036316;28;20304;-73
2022/02/28 05:43:29;;;;;;;;;;;-1.80;92.10;;;;;;5036075;28;19917;-72
2022/02/28 05:45:55;;;;;;;;;;;-1.60;92.10;;;;;;5034678;28;19909;-70
2022/02/28 05:48:20;;;;;;;;;;;-1.70;91.60;;;;;;5034936;28;19909;-71
2022/02/28 05:50:46;;;;;;;;;;;-1.60;91.90;;;;;;5036420;28;19917;-71
2022/02/28 05:53:11;;;;;;;;;;;-1.70;92.00;;;;;;5036093;28;19913;-71
2022/02/28 05:55:38;;;;;;;;;;;-1.70;92.30;;;;;;5035913;28;19909;-71
2022/02/28 05:58:04;;;;;;;;;;;-2.00;91.70;;;;;;5035882;28;19959;-70
2022/02/28 06:00:30;;;;;;;;;;;-2.10;92.30;;;;;;5035903;28;19909;-71
2022/02/28 06:02:55;;;;;;;;;;;-2.10;92.30;;;;;;5035834;28;19909;-71
2022/02/28 06:05:21;;;;;;;;;;;-2.00;93.00;;;;;;5035691;28;19917;-71
2022/02/28 06:07:47;;;;;;;;;;;-1.90;92.90;;;;;;5034100;28;19920;-70
2022/02/28 06:10:13;;;;;;;;;;;-1.80;92.90;;;;;;5035593;28;19924;-69
2022/02/28 06:12:38;;;;;;;;;;;-1.80;92.50;;;;;;5035526;28;20380;-70
2022/02/28 06:15:04;;;;;;;;;;;-1.70;92.50;;;;;;5034317;28;19920;-71
2022/02/28 06:17:32;;;;;;;;;;;-1.80;92.40;;;;;;5035432;28;19916;-73
2022/02/28 06:19:57;;;;;;;;;;;-1.80;92.90;;;;;;5035566;28;19909;-73
2022/02/28 06:22:23;;;;;;;;;;;-1.80;92.80;;;;;;5035453;28;20449;-72
2022/02/28 06:24:49;;;;;;;;;;;-1.90;92.50;;;;;;5035379;28;19909;-72
2022/02/28 06:27:14;;;;;;;;;;;-1.90;92.70;;;;;;5034116;28;20032;-73
2022/02/28 06:29:40;;;;;;;;;;;-2.00;93.00;;;;;;5030800;28;20296;-70
2022/02/28 06:32:07;;;;;;;;;;;-1.90;93.10;;;;;;5015461;28;20142;-72
2022/02/28 06:34:32;;;;;;;;;;;-1.80;93.40;;;;;;5004860;28;19952;-70
2022/02/28 06:36:58;;;;;;;;;;;-1.70;93.40;;;;;;5028379;28;19916;-71
2022/02/28 06:39:25;;;;;;;;;;;-1.60;93.30;;;;;;5034987;28;19916;-70
2022/02/28 06:41:51;;;;;;;;;;;-1.40;93.50;;;;;;5028896;28;20008;-71
2022/02/28 06:44:17;;;;;;;;;;;-1.40;93.50;;;;;;5013953;28;20019;-71
2022/02/28 06:46:43;;;;;;;;;;;-1.10;93.70;;;;;;5032866;28;19913;-71
2022/02/28 06:49:09;;;;;;;;;;;-1.10;93.20;;;;;;5033379;28;20450;-71
2022/02/28 06:51:34;;;;;;;;;;;-1.10;93.30;;;;;;5030346;28;19963;-71
2022/02/28 06:54:00;;;;;;;;;;;-1.10;93.30;;;;;;5013439;28;19910;-71
2022/02/28 06:56:26;;;;;;;;;;;-1.10;93.70;;;;;;5014586;28;19916;-70
2022/02/28 06:58:52;;;;;;;;;;;-1.00;93.90;;;;;;5013567;28;19910;-72
2022/02/28 07:01:18;;;;;;;;;;;-0.90;94.30;;;;;;5014818;28;19910;-71
2022/02/28 07:03:43;;;;;;;;;;;-0.70;94.20;;;;;;5032673;28;20281;-71
2022/02/28 07:06:10;;;;;;;;;;;-0.60;94.30;;;;;;5032268;28;19910;-71
2022/02/28 07:08:36;;;;;;;;;;;-0.40;94.00;;;;;;5021241;28;19921;-71
2022/02/28 07:11:01;;;;;;;;;;;-0.40;94.00;;;;;;5034413;28;19909;-71
2022/02/28 07:13:27;;;;;;;;;;;-0.50;94.80;;;;;;5032094;28;20292;-72
2022/02/28 07:15:54;;;;;;;;;;;-0.40;95.00;;;;;;5020389;28;19916;-71
2022/02/28 07:18:19;;;;;;;;;;;-0.30;95.70;;;;;;5027257;28;19916;-76
2022/02/28 07:20:45;;;;;;;;;;;-0.20;95.30;;;;;;5034221;28;19910;-71
2022/02/28 07:23:10;;;;;;;;;;;-0.20;95.60;;;;;;5033476;28;19916;-71
2022/02/28 07:25:36;;;;;;;;;;;0.00;95.90;;;;;;5046861;28;20380;-71
2022/02/28 07:28:02;;;;;;;;;;;0.00;95.50;;;;;;5014179;28;20374;-72
2022/02/28 07:30:28;;;;;;;;;;;0.20;95.60;;;;;;5014151;28;19913;-72
2022/02/28 07:32:53;;;;;;;;;;;0.20;95.30;;;;;;5000653;28;20008;-73
2022/02/28 07:35:19;;;;;;;;;;;0.40;95.10;;;;;;5038439;28;19963;-73
2022/02/28 07:37:45;;;;;;;;;;;0.30;94.50;;;;;;5027802;28;19909;-71
2022/02/28 07:40:11;;;;;;;;;;;0.40;94.20;;;;;;5012725;28;19953;-71
2022/02/28 07:42:37;;;;;;;;;;;0.50;93.30;;;;;;5017001;28;20142;-73
2022/02/28 07:45:04;;;;;;;;;;;0.40;93.30;;;;;;5033578;28;19913;-71
2022/02/28 07:47:29;;;;;;;;;;;0.40;93.00;;;;;;5032989;28;19915;-71
2022/02/28 07:49:55;;;;;;;;;;;0.50;93.00;;;;;;5033855;28;20004;-72
2022/02/28 07:52:21;;;;;;;;;;;0.50;92.80;;;;;;5032853;28;19917;-72
2022/02/28 07:54:46;;;;;;;;;;;0.60;92.60;;;;;;5033191;28;20130;-72
2022/02/28 07:57:12;;;;;;;;;;;0.80;92.40;;;;;;5033489;28;20304;-73
2022/02/28 07:59:37;;;;;;;;;;;0.90;92.50;;;;;;5014457;28;19917;-71
2022/02/28 08:02:03;;;;;;;;;;;0.80;92.30;;;;;;5026650;28;19916;-71
2022/02/28 08:04:29;;;;;;;;;;;0.70;92.30;;;;;;5032529;28;19993;-71
2022/02/28 08:06:54;;;;;;;;;;;0.70;93.20;;;;;;5033817;28;19910;-71
2022/02/28 08:09:21;;;;;;;;;;;0.80;93.20;;;;;;5033089;28;19909;-71
2022/02/28 08:11:47;;;;;;;;;;;0.90;93.20;;;;;;5033081;28;19920;-72
2022/02/28 08:14:13;;;;;;;;;;;1.00;93.00;;;;;;5032467;28;20000;-72
2022/02/28 08:16:39;;;;;;;;;;;1.00;92.50;;;;;;5014645;28;20395;-72
2022/02/28 08:19:04;;;;;;;;;;;1.00;93.00;;;;;;5013653;28;19949;-72
2022/02/28 08:21:30;;;;;;;;;;;1.00;93.10;;;;;;5012152;28;19916;-73
2022/02/28 08:23:56;;;;;;;;;;;1.00;93.30;;;;;;5013123;28;19909;-73
2022/02/28 08:26:21;;;;;;;;;;;1.20;93.40;;;;;;5026662;28;19910;-73
2022/02/28 08:28:47;;;;;;;;;;;1.40;92.90;;;;;;5025074;28;20387;-75
2022/02/28 08:31:13;;;;;;;;;;;1.40;92.40;;;;;;5025329;28;19967;-73
2022/02/28 08:33:38;;;;;;;;;;;1.20;92.70;;;;;;5025110;28;19920;-73
2022/02/28 08:36:04;;;;;;;;;;;1.20;93.30;;;;;;5022326;28;19910;-73
2022/02/28 08:38:30;;;;;;;;;;;1.50;92.90;;;;;;5024072;28;20368;-73
2022/02/28 08:40:55;;;;;;;;;;;1.70;92.60;;;;;;5012191;28;20335;-73
2022/02/28 08:43:21;;;;;;;;;;;1.80;92.30;;;;;;4997223;28;20533;-73
2022/02/28 08:45:46;;;;;;;;;;;2.00;92.70;;;;;;5022770;28;20288;-73
2022/02/28 08:48:12;;;;;;;;;;;2.10;91.90;;;;;;5020056;28;20377;-72
2022/02/28 08:50:38;;;;;;;;;;;2.30;92.00;;;;;;5026812;28;19995;-73
2022/02/28 08:53:03;;;;;;;;;;;2.30;91.90;;;;;;5013261;28;19920;-73
2022/02/28 08:55:29;;;;;;;;;;;2.30;92.20;;;;;;5020040;28;19932;-73
2022/02/28 08:57:55;;;;;;;;;;;2.20;91.60;;;;;;5021754;28;20369;-73
2022/02/28 09:00:21;;;;;;;;;;;2.50;91.60;;;;;;5020172;28;19913;-73
2022/02/28 09:02:47;;;;;;;;;;;2.70;90.80;;;;;;5023649;28;20394;-74
2022/02/28 09:05:13;;;;;;;;;;;2.70;89.60;;;;;;5012907;28;19910;-73
2022/02/28 09:07:39;;;;;;;;;;;2.90;87.90;;;;;;5019050;28;19971;-73
2022/02/28 09:10:05;;;;;;;;;;;3.10;84.80;;;;;;5017697;28;19916;-74
2022/02/28 09:12:30;;;;;;;;;;;3.10;83.50;;;;;;5023074;28;19914;-73
2022/02/28 09:14:56;;;;;;;;;;;3.00;84.20;;;;;;5017352;28;19975;-73
2022/02/28 09:17:21;;;;;;;;;;;3.10;83.20;;;;;;5019807;28;19915;-73
2022/02/28 09:19:47;;;;;;;;;;;3.00;83.20;;;;;;5013903;28;19909;-73
2022/02/28 09:22:13;;;;;;;;;;;3.20;82.80;;;;;;5006544;28;19975;-73
2022/02/28 09:24:38;;;;;;;;;;;3.10;83.60;;;;;;5015196;28;19913;-73
2022/02/28 09:27:05;;;;;;;;;;;3.10;83.70;;;;;;5022637;28;19909;-73
2022/02/28 09:29:30;;;;;;;;;;;3.40;83.30;;;;;;5022200;28;19963;-72
2022/02/28 09:31:57;;;;;;;;;;;3.30;81.50;;;;;;5016926;28;19921;-73
2022/02/28 09:34:23;;;;;;;;;;;3.70;82.10;;;;;;5013171;28;20357;-73
2022/02/28 09:36:51;;;;;;;;;;;4.00;80.80;;;;;;5011938;28;19925;-73
2022/02/28 09:39:20;;;;;;;;;;;4.40;78.80;;;;;;5019120;28;19918;-71
2022/02/28 09:41:46;;;;;;;;;;;4.80;75.40;;;;;;5021629;28;19995;-72
2022/02/28 09:44:14;;;;;;;;;;;5.30;73.00;;;;;;5008706;28;19914;-72
2022/02/28 09:46:41;;;;;;;;;;;5.60;72.20;;;;;;5021225;28;20000;-73
2022/02/28 09:49:07;;;;;;;;;;;5.90;68.30;;;;;;5017344;28;20000;-71
2022/02/28 09:51:33;;;;;;;;;;;6.00;68.40;;;;;;5019626;28;19996;-73
2022/02/28 09:53:58;;;;;;;;;;;6.30;67.70;;;;;;5026768;28;19909;-73
2022/02/28 09:56:25;;;;;;;;;;;6.50;66.00;;;;;;5007171;28;19920;-72
2022/02/28 09:58:50;;;;;;;;;;;6.80;63.40;;;;;;5026047;28;19910;-74
2022/02/28 10:01:16;;;;;;;;;;;7.20;62.40;;;;;;5021322;28;20012;-71
2022/02/28 10:03:42;;;;;;;;;;;7.30;60.20;;;;;;5030118;28;19909;-72
2022/02/28 10:06:07;;;;;;;;;;;7.70;59.10;;;;;;5007428;28;19917;-73
2022/02/28 10:08:40;;;;;;;;;;;8.00;58.20;;;;;;5003330;28;20344;-73
2022/02/28 10:11:22;;;;;;;;;;;8.30;57.50;;;;;;5016168;28;19983;-73
2022/02/28 10:13:48;;;;;;;;;;;8.70;56.90;;;;;;5019987;28;19913;-73
2022/02/28 10:16:18;;;;;;;;;;;9.00;55.00;;;;;;5007532;28;20356;-72
2022/02/28 10:18:43;;;;;;;;;;;8.70;56.00;;;;;;5023254;28;19956;-72
2022/02/28 10:21:09;;;;;;;;;;;8.60;55.90;;;;;;5020127;28;19909;-73
2022/02/28 10:23:35;;;;;;;;;;;9.10;54.40;;;;;;5026680;28;19923;-73
2022/02/28 10:26:00;;;;;;;;;;;9.70;52.80;;;;;;5015573;28;19916;-72
2022/02/28 10:28:26;;;;;;;;;;;9.60;53.30;;;;;;5015107;28;19924;-73
2022/02/28 10:30:58;;;;;;;;;;;10.10;52.10;;;;;;5018228;28;19909;-77
2022/02/28 10:33:31;;;;;;;;;;;10.10;51.20;;;;;;5021270;28;19925;-74
2022/02/28 10:36:10;;;;;;;;;;;10.60;49.10;;;;;;5008767;28;19956;-74
2022/02/28 10:38:41;;;;;;;;;;;10.80;48.10;;;;;;5029953;28;20283;-72
2022/02/28 10:41:14;;;;;;;;;;;10.90;48.40;;;;;;5025867;28;19914;-75
2022/02/28 10:43:41;;;;;;;;;;;10.50;47.60;;;;;;5024615;28;19923;-72
2022/02/28 10:46:16;;;;;;;;;;;10.80;48.40;;;;;;5022972;28;19920;-72
2022/02/28 10:48:52;;;;;;;;;;;11.20;47.70;;;;;;5029392;28;19917;-73
2022/02/28 10:51:17;;;;;;;;;;;11.40;47.70;;;;;;5026364;28;19917;-73
2022/02/28 10:53:43;;;;;;;;;;;11.70;46.70;;;;;;5006499;28;19913;-73
2022/02/28 10:56:09;;;;;;;;;;;11.70;46.50;;;;;;5018400;28;19961;-72
2022/02/28 10:58:35;;;;;;;;;;;12.30;46.40;;;;;;5019977;28;20015;-72
2022/02/28 11:01:06;;;;;;;;;;;12.70;44.60;;;;;;5030601;28;19967;-72
2022/02/28 11:03:42;;;;;;;;;;;12.30;43.90;;;;;;5030982;28;20277;-72
2022/02/28 11:06:08;;;;;;;;;;;11.80;44.10;;;;;;5017792;28;19917;-72
2022/02/28 11:08:40;;;;;;;;;;;11.50;45.00;;;;;;5021139;28;19909;-73
2022/02/28 11:11:09;;;;;;;;;;;12.10;44.90;;;;;;5018340;28;19914;-73
2022/02/28 11:13:36;;;;;;;;;;;11.90;44.00;;;;;;5014209;28;19919;-72
2022/02/28 11:16:01;;;;;;;;;;;12.70;43.30;;;;;;5028236;28;19916;-72
2022/02/28 11:18:27;;;;;;;;;;;13.10;42.20;;;;;;5030687;28;19913;-72
2022/02/28 11:20:56;;;;;;;;;;;12.40;42.20;;;;;;5027792;28;20384;-73
2022/02/28 11:23:22;;;;;;;;;;;12.40;42.40;;;;;;5022702;28;19909;-72
2022/02/28 11:25:48;;;;;;;;;;;13.10;42.00;;;;;;5022468;28;19916;-72
2022/02/28 11:28:14;;;;;;;;;;;13.20;40.70;;;;;;5028041;28;19959;-72
2022/02/28 11:30:40;;;;;;;;;;;12.50;40.90;;;;;;5018063;28;20436;-72
2022/02/28 11:33:07;;;;;;;;;;;12.20;43.60;;;;;;5018968;28;20004;-73
2022/02/28 11:35:38;;;;;;;;;;;12.10;40.90;;;;;;5028189;28;19921;-73
2022/02/28 11:38:05;;;;;;;;;;;12.50;40.50;;;;;;5027337;28;19952;-73
2022/02/28 11:40:32;;;;;;;;;;;12.60;40.70;;;;;;5017561;28;19909;-73
2022/02/28 11:43:07;;;;;;;;;;;12.80;39.20;;;;;;5019981;28;19953;-73
2022/02/28 11:45:33;;;;;;;;;;;12.50;40.10;;;;;;5024672;28;20005;-73
2022/02/28 11:48:15;;;;;;;;;;;13.00;41.00;;;;;;5018449;28;20382;-73
2022/02/28 11:50:54;;;;;;;;;;;13.20;40.10;;;;;;5020284;28;20432;-73
2022/02/28 11:53:38;;;;;;;;;;;13.90;38.40;;;;;;5027367;28;19929;-72
2022/02/28 11:56:16;;;;;;;;;;;12.80;38.10;;;;;;5013557;28;19953;-72
2022/02/28 11:58:49;;;;;;;;;;;12.80;39.70;;;;;;5027571;28;19913;-73
2022/02/28 12:01:16;;;;;;;;;;;13.40;39.40;;;;;;5028251;28;19944;-73
2022/02/28 12:03:49;;;;;;;;;;;13.30;38.90;;;;;;5025651;28;19925;-73
2022/02/28 12:06:40;;;;;;;;;;;12.40;40.50;;;;;;5013455;28;19932;-73
2022/02/28 12:09:06;;;;;;;;;;;13.40;39.30;;;;;;5018737;28;19914;-73
2022/02/28 12:11:32;;;;;;;;;;;13.00;38.30;;;;;;5015843;28;19916;-73
2022/02/28 12:13:59;;;;;;;;;;;13.50;40.30;;;;;;5021962;28;19914;-73
2022/02/28 12:19:27;;;;;;;;;;;15.00;37.60;;;;;;5029352;28;19963;-73
2022/02/28 12:22:00;;;;;;;;;;;14.80;36.50;;;;;;5022254;28;19909;-72
2022/02/28 12:24:52;;;;;;;;;;;14.30;35.60;;;;;;5021842;28;19913;-73
2022/02/28 12:27:18;;;;;;;;;;;13.40;37.00;;;;;;5019856;28;19937;-73
2022/02/28 12:29:44;;;;;;;;;;;13.50;36.90;;;;;;5017717;28;19910;-73
2022/02/28 12:32:09;;;;;;;;;;;14.00;36.20;;;;;;5014153;28;19924;-74
2022/02/28 12:34:35;;;;;;;;;;;14.70;34.40;;;;;;5021966;28;19910;-73
2022/02/28 12:37:01;;;;;;;;;;;15.10;34.10;;;;;;5011470;28;19964;-73
2022/02/28 12:39:27;;;;;;;;;;;15.20;35.30;;;;;;5017163;28;20353;-73
2022/02/28 12:41:56;;;;;;;;;;;14.20;36.80;;;;;;5020259;28;19967;-73
2022/02/28 12:44:22;;;;;;;;;;;14.20;35.90;;;;;;5016313;28;19909;-73
2022/02/28 12:46:49;;;;;;;;;;;13.90;35.20;;;;;;5018933;28;19925;-73
2022/02/28 12:49:16;;;;;;;;;;;13.80;35.00;;;;;;5020807;28;19990;-72
2022/02/28 12:51:42;;;;;;;;;;;14.10;36.00;;;;;;5018230;28;19909;-73
2022/02/28 12:54:12;;;;;;;;;;;15.10;33.50;;;;;;5019940;28;19967;-73
2022/02/28 12:56:39;;;;;;;;;;;14.30;32.90;;;;;;5022417;28;19910;-73
2022/02/28 12:59:04;;;;;;;;;;;14.20;35.40;;;;;;4998938;28;19916;-73
2022/02/28 13:01:31;;;;;;;;;;;14.40;32.70;;;;;;5023503;28;19909;-73
2022/02/28 13:04:00;;;;;;;;;;;14.40;34.20;;;;;;5024342;28;19917;-73
2022/02/28 13:06:30;;;;;;;;;;;13.90;37.00;;;;;;5012270;28;19909;-73
2022/02/28 13:08:58;;;;;;;;;;;14.30;36.00;;;;;;5021890;28;19979;-73
2022/02/28 13:11:24;;;;;;;;;;;14.50;33.50;;;;;;5025104;28;20004;-72
2022/02/28 13:13:53;;;;;;;;;;;14.10;32.50;;;;;;5020873;28;20051;-73
2022/02/28 13:16:18;;;;;;;;;;;13.00;34.80;;;;;;5021187;28;20315;-73
2022/02/28 13:18:44;;;;;;;;;;;13.00;36.80;;;;;;5024310;28;19909;-73
2022/02/28 13:21:10;;;;;;;;;;;13.20;38.40;;;;;;5022130;28;20431;-72
2022/02/28 13:23:37;;;;;;;;;;;13.10;36.60;;;;;;5018894;28;19955;-72
2022/02/28 13:26:03;;;;;;;;;;;12.40;37.80;;;;;;5022953;28;19949;-73
2022/02/28 13:28:29;;;;;;;;;;;12.00;38.70;;;;;;5001994;28;19920;-73
2022/02/28 13:30:56;;;;;;;;;;;11.80;39.00;;;;;;5029626;28;20411;-73
2022/02/28 13:33:23;;;;;;;;;;;11.50;38.50;;;;;;5013663;28;19924;-72
2022/02/28 13:35:49;;;;;;;;;;;11.60;38.50;;;;;;5015675;28;19953;-73
2022/02/28 13:38:18;;;;;;;;;;;10.90;37.70;;;;;;5018523;28;19921;-73
2022/02/28 13:40:44;;;;;;;;;;;11.00;39.20;;;;;;5018106;28;20714;-72
2022/02/28 13:43:10;;;;;;;;;;;10.70;38.50;;;;;;5022571;28;20001;-73
2022/02/28 13:45:39;;;;;;;;;;;10.30;38.90;;;;;;5016638;28;19932;-73
2022/02/28 13:48:14;;;;;;;;;;;9.50;40.40;;;;;;5024119;28;20081;-72
2022/02/28 13:50:42;;;;;;;;;;;9.80;41.00;;;;;;5021899;28;20377;-73
2022/02/28 13:53:08;;;;;;;;;;;9.60;41.60;;;;;;5028726;28;20316;-72
2022/02/28 13:55:34;;;;;;;;;;;9.30;41.60;;;;;;5016606;28;19910;-72
2022/02/28 13:57:59;;;;;;;;;;;9.40;42.60;;;;;;5029228;28;19909;-72
2022/02/28 14:00:26;;;;;;;;;;;9.30;42.20;;;;;;5019195;28;19941;-72
2022/02/28 14:02:53;;;;;;;;;;;9.40;42.00;;;;;;5026860;28;19909;-72
2022/02/28 14:05:19;;;;;;;;;;;9.50;41.50;;;;;;5024999;28;19917;-73
2022/02/28 14:07:57;;;;;;;;;;;8.90;42.30;;;;;;5028952;28;19909;-71
2022/02/28 14:10:27;;;;;;;;;;;8.90;42.60;;;;;;4998679;28;19912;-73
2022/02/28 14:12:54;;;;;;;;;;;9.00;42.10;;;;;;5026198;28;19913;-72
2022/02/28 14:15:26;;;;;;;;;;;9.00;42.60;;;;;;5024809;28;19909;-72
2022/02/28 14:17:56;;;;;;;;;;;8.90;42.20;;;;;;5029482;28;19909;-72
2022/02/28 14:20:22;;;;;;;;;;;9.10;42.40;;;;;;5032645;28;20266;-72